Time;durP1;ratioP1;P1;durP2;ratioP2;P2;SDS_P1;SDS_P2;PMS_P1;PMS_P2;Temp;Humidity;BMP_temperature;BMP_pressure;BME280_temperature;BME280_humidity;BME280_pressure;Samples;Min_cycle;Max_cycle;Signal;HPM_P1;HPM_P2
2022/07/05 00:02:01;;;;;;;3.20;2.90;;;;;;;19.59;64.72;99769.28;4985525;28;20480;-77
2022/07/05 00:04:27;;;;;;;2.37;2.20;;;;;;;19.58;64.97;99764.97;4988615;28;20585;-77
2022/07/05 00:09:36;;;;;;;4.37;3.23;;;;;;;19.27;66.38;99779.59;4983917;28;20274;-77
2022/07/05 00:12:02;;;;;;;4.77;2.50;;;;;;;19.11;67.06;99781.09;4988479;28;20466;-78
2022/07/05 00:14:28;;;;;;;2.50;2.27;;;;;;;19.05;67.44;99794.16;4987861;28;20332;-77
2022/07/05 00:16:53;;;;;;;8.90;3.00;;;;;;;18.99;67.34;99790.28;4987189;28;20541;-77
2022/07/05 00:19:19;;;;;;;5.50;3.03;;;;;;;18.97;67.69;99784.25;4985740;28;20300;-77
2022/07/05 00:21:44;;;;;;;3.60;2.90;;;;;;;18.96;67.54;99786.06;4986911;28;20207;-77
2022/07/05 00:24:10;;;;;;;3.20;2.90;;;;;;;19.01;67.37;99781.16;4988382;28;20256;-77
2022/07/05 00:26:35;;;;;;;3.60;2.67;;;;;;;19.09;67.23;99777.75;4986796;28;20224;-77
2022/07/05 00:29:01;;;;;;;4.00;2.47;;;;;;;19.16;66.75;99776.16;4990004;28;20221;-77
2022/07/05 00:31:37;;;;;;;2.97;2.67;;;;;;;19.16;66.54;99784.13;4985646;28;20197;-77
2022/07/05 00:34:02;;;;;;;5.00;3.20;;;;;;;19.09;66.99;99780.41;4967850;28;20836;-77
2022/07/05 00:36:28;;;;;;;2.97;2.73;;;;;;;19.05;66.77;99786.19;4987960;28;20223;-77
2022/07/05 00:38:53;;;;;;;3.33;2.73;;;;;;;19.08;66.98;99780.56;4991514;28;20272;-77
2022/07/05 00:41:18;;;;;;;3.57;2.67;;;;;;;19.11;66.77;99781.09;4989437;28;20291;-77
2022/07/05 00:43:56;;;;;;;3.00;2.73;;;;;;;19.12;66.85;99782.78;4973938;28;20204;-77
2022/07/05 00:46:26;;;;;;;3.57;2.67;;;;;;;19.07;66.97;99779.72;4993816;28;20290;-77
2022/07/05 00:48:51;;;;;;;5.53;2.47;;;;;;;19.06;67.02;99775.34;4967824;28;20489;-77
2022/07/05 00:51:18;;;;;;;3.23;2.93;;;;;;;19.00;67.03;99773.28;4985109;28;20477;-77
2022/07/05 00:53:43;;;;;;;4.27;3.03;;;;;;;18.90;67.52;99773.38;4987477;28;20254;-77
2022/07/05 00:56:13;;;;;;;4.67;3.20;;;;;;;18.78;67.89;99775.34;4987027;28;20504;-77
2022/07/05 00:58:38;;;;;;;2.70;2.50;;;;;;;18.69;68.15;99770.06;4983547;28;20281;-77
2022/07/05 01:01:06;;;;;;;3.43;3.10;;;;;;;18.69;68.09;99775.38;4986697;28;20465;-77
2022/07/05 01:03:32;;;;;;;8.67;2.67;;;;;;;18.70;67.96;99772.56;4986905;28;20280;-77
2022/07/05 01:06:00;;;;;;;3.40;3.10;;;;;;;18.74;67.85;99779.31;4986833;28;20695;-76
2022/07/05 01:08:25;;;;;;;3.07;2.77;;;;;;;18.78;67.50;99770.03;4982583;28;20793;-77
2022/07/05 01:10:52;;;;;;;4.47;3.00;;;;;;;18.84;67.54;99773.09;4985193;28;20460;-77
2022/07/05 01:13:17;;;;;;;2.70;2.50;;;;;;;18.86;67.55;99776.47;4969846;28;20244;-77
2022/07/05 01:15:43;;;;;;;4.30;3.30;;;;;;;18.84;67.79;99768.59;4986244;28;20487;-77
2022/07/05 01:18:10;;;;;;;2.90;2.67;;;;;;;18.76;67.95;99766.66;4984400;28;22858;-77
2022/07/05 01:20:36;;;;;;;5.87;3.17;;;;;;;18.68;68.53;99768.34;4968459;28;20479;-77
2022/07/05 01:23:02;;;;;;;3.13;2.90;;;;;;;18.59;68.64;99775.41;4967922;28;20834;-77
2022/07/05 01:25:29;;;;;;;3.83;3.20;;;;;;;18.51;68.98;99768.13;4968751;28;20484;-77
2022/07/05 01:27:57;;;;;;;4.03;3.13;;;;;;;18.45;69.11;99767.88;4985111;28;20471;-77
2022/07/05 01:30:23;;;;;;;4.17;3.57;;;;;;;18.42;69.41;99769.00;4963024;28;20442;-77
2022/07/05 01:32:48;;;;;;;4.40;2.67;;;;;;;18.43;69.64;99767.19;4969607;28;20803;-77
2022/07/05 01:35:23;;;;;;;4.30;3.60;;;;;;;18.39;70.02;99768.44;4986335;28;20231;-77
2022/07/05 01:37:49;;;;;;;3.93;3.27;;;;;;;18.34;70.45;99769.72;4985977;28;20199;-77
2022/07/05 01:40:16;;;;;;;4.90;3.33;;;;;;;18.31;70.52;99771.84;4951367;28;20452;-77
2022/07/05 01:42:41;;;;;;;3.47;3.10;;;;;;;18.26;70.96;99776.75;4985684;28;20902;-77
2022/07/05 01:45:07;;;;;;;3.40;3.10;;;;;;;18.23;70.83;99772.56;4968380;28;20502;-77
2022/07/05 01:47:36;;;;;;;3.40;3.03;;;;;;;18.24;71.01;99770.72;4985687;28;20211;-77
2022/07/05 01:50:06;;;;;;;3.90;3.30;;;;;;;18.23;71.08;99771.72;4966304;28;20214;-77
2022/07/05 01:52:33;;;;;;;4.83;3.20;;;;;;;18.20;71.07;99769.31;4983787;28;20824;-77
2022/07/05 01:55:00;;;;;;;8.17;3.10;;;;;;;18.16;71.06;99771.44;4985150;28;20758;-77
2022/07/05 01:57:26;;;;;;;3.37;3.07;;;;;;;18.13;71.36;99772.56;4980639;28;20533;-76
2022/07/05 01:59:51;;;;;;;3.10;2.80;;;;;;;18.13;71.37;99779.69;4976343;28;21160;-77
2022/07/05 02:02:17;;;;;;;3.80;2.73;;;;;;;18.12;71.17;99772.72;4977502;28;20911;-77
2022/07/05 02:04:42;;;;;;;2.93;2.63;;;;;;;18.09;71.42;99783.59;4969680;28;20451;-77
2022/07/05 02:07:10;;;;;;;5.70;2.80;;;;;;;18.06;71.21;99783.91;4968133;28;20239;-77
2022/07/05 02:09:38;;;;;;;4.10;3.10;;;;;;;18.06;71.03;99778.56;4966363;28;20451;-77
2022/07/05 02:12:04;;;;;;;3.47;3.17;;;;;;;18.06;71.04;99782.06;4983505;28;21379;-77
2022/07/05 02:14:30;;;;;;;3.00;2.80;;;;;;;18.04;71.02;99778.72;4968927;28;20844;-77
2022/07/05 02:16:56;;;;;;;4.00;2.67;;;;;;;17.99;71.13;99782.81;4968789;28;20479;-77
2022/07/05 02:19:22;;;;;;;5.43;2.50;;;;;;;17.90;71.37;99780.00;4984732;28;20455;-77
2022/07/05 02:21:48;;;;;;;3.23;2.97;;;;;;;17.84;71.69;99775.22;4968121;28;20224;-77
2022/07/05 02:24:16;;;;;;;6.10;3.27;;;;;;;17.80;71.70;99779.16;4968406;28;20497;-77
2022/07/05 02:26:53;;;;;;;4.37;2.43;;;;;;;17.77;71.58;99790.03;4967376;28;20476;-77
2022/07/05 02:29:18;;;;;;;4.80;3.00;;;;;;;17.70;71.57;99795.06;4968245;28;20464;-78
2022/07/05 02:31:45;;;;;;;4.37;3.00;;;;;;;17.65;71.80;99788.47;4967031;28;20251;-77
2022/07/05 02:34:12;;;;;;;2.83;2.63;;;;;;;17.60;71.78;99790.72;4983137;28;20478;-77
2022/07/05 02:36:38;;;;;;;3.40;3.10;;;;;;;17.51;72.20;99796.88;4967265;28;21197;-77
2022/07/05 02:39:05;;;;;;;2.57;2.37;;;;;;;17.39;72.52;99793.47;4964779;28;20513;-77
2022/07/05 02:41:32;;;;;;;5.10;3.23;;;;;;;17.27;72.98;99792.75;4965534;28;20456;-77
2022/07/05 02:43:57;;;;;;;4.50;2.53;;;;;;;17.16;73.22;99803.47;4968694;28;20490;-77
2022/07/05 02:46:27;;;;;;;2.87;2.57;;;;;;;17.03;73.55;99807.19;4972580;28;20641;-77
2022/07/05 02:48:54;;;;;;;2.60;2.40;;;;;;;16.94;74.15;99805.34;4970662;28;20449;-77
2022/07/05 02:51:20;;;;;;;3.53;3.10;;;;;;;16.91;74.20;99808.28;4967891;28;20459;-77
2022/07/05 02:53:48;;;;;;;3.63;2.67;;;;;;;16.91;74.18;99810.94;4972441;28;20216;-77
2022/07/05 02:56:15;;;;;;;3.37;3.07;;;;;;;16.90;74.08;99814.53;4970799;28;20477;-77
2022/07/05 02:58:41;;;;;;;3.67;2.93;;;;;;;16.83;74.27;99816.06;4970472;28;20461;-77
2022/07/05 03:01:08;;;;;;;2.70;2.43;;;;;;;16.74;74.56;99822.13;4968795;28;20203;-77
2022/07/05 03:03:36;;;;;;;3.40;3.03;;;;;;;16.67;75.07;99816.50;4954074;28;20472;-77
2022/07/05 03:06:01;;;;;;;5.90;3.33;;;;;;;16.62;75.39;99812.56;4985616;23;20264;-78
2022/07/05 03:08:29;;;;;;;7.00;3.03;;;;;;;16.56;75.59;99820.09;4950136;28;20215;-78
2022/07/05 03:10:55;;;;;;;3.47;2.47;;;;;;;16.50;75.53;99825.06;4966728;28;20705;-77
2022/07/05 03:13:21;;;;;;;3.27;2.97;;;;;;;16.54;75.39;99819.38;4973623;28;20458;-78
2022/07/05 03:15:46;;;;;;;4.33;3.97;;;;;;;16.59;75.34;99821.63;4961756;28;20295;-78
2022/07/05 03:18:16;;;;;;;3.27;2.70;;;;;;;16.62;74.81;99821.38;4947584;28;20565;-78
2022/07/05 03:20:41;;;;;;;2.93;2.73;;;;;;;16.65;74.71;99822.91;4969333;28;20521;-78
2022/07/05 03:23:07;;;;;;;3.13;2.93;;;;;;;16.68;74.35;99825.31;4945441;28;20257;-78
2022/07/05 03:25:40;;;;;;;3.20;3.00;;;;;;;16.65;74.10;99828.22;4953869;28;20460;-78
2022/07/05 03:28:06;;;;;;;4.67;2.90;;;;;;;16.60;74.08;99832.09;4935946;29;20503;-78
2022/07/05 03:30:32;;;;;;;4.13;2.90;;;;;;;16.62;73.88;99823.19;4950678;28;20470;-78
2022/07/05 03:32:58;;;;;;;3.97;3.20;;;;;;;16.65;73.60;99831.72;4970804;28;20953;-78
2022/07/05 03:35:23;;;;;;;3.37;2.80;;;;;;;16.67;73.74;99839.56;4918903;28;20491;-78
2022/07/05 03:37:50;;;;;;;4.10;3.07;;;;;;;16.62;73.62;99839.09;4936006;28;20247;-78
2022/07/05 03:40:18;;;;;;;3.50;3.20;;;;;;;16.55;73.56;99842.28;4942141;28;20978;-78
2022/07/05 03:42:43;;;;;;;4.33;3.60;;;;;;;16.51;73.81;99842.66;4946044;28;20538;-78
2022/07/05 03:45:09;;;;;;;3.20;3.00;;;;;;;16.48;73.73;99841.09;4948537;28;20228;-78
2022/07/05 03:47:37;;;;;;;2.50;2.30;;;;;;;16.48;73.73;99846.41;4938146;29;20225;-78
2022/07/05 03:50:04;;;;;;;2.93;2.63;;;;;;;16.46;73.71;99851.00;4947109;28;20444;-78
2022/07/05 03:52:29;;;;;;;3.30;3.10;;;;;;;16.42;73.88;99851.38;4953342;28;20489;-78
2022/07/05 03:54:57;;;;;;;3.37;3.03;;;;;;;16.41;73.90;99853.19;4943962;29;20486;-78
2022/07/05 03:57:22;;;;;;;4.70;3.83;;;;;;;16.47;73.73;99858.00;4933712;29;20855;-78
2022/07/05 03:59:48;;;;;;;3.50;3.20;;;;;;;16.51;73.54;99853.25;4950544;28;20204;-78
2022/07/05 04:02:15;;;;;;;5.13;2.90;;;;;;;16.40;73.88;99862.13;4957977;28;20243;-78
2022/07/05 04:04:43;;;;;;;2.70;2.50;;;;;;;16.31;74.08;99865.53;4956369;29;20507;-78
2022/07/05 04:07:09;;;;;;;2.80;2.60;;;;;;;16.20;74.37;99860.28;4950605;28;20492;-78
2022/07/05 04:09:36;;;;;;;3.00;2.80;;;;;;;16.16;74.53;99865.00;4973225;28;20456;-78
2022/07/05 04:12:03;;;;;;;4.50;3.17;;;;;;;16.14;74.54;99866.94;4956339;28;20487;-78
2022/07/05 04:14:30;;;;;;;3.43;3.10;;;;;;;16.16;74.55;99870.31;4972707;28;20527;-78
2022/07/05 04:16:56;;;;;;;4.80;3.93;;;;;;;16.16;74.41;99859.72;4970192;28;20510;-77
2022/07/05 04:19:23;;;;;;;4.20;3.90;;;;;;;16.06;74.60;99859.63;4952768;28;20778;-78
2022/07/05 04:21:48;;;;;;;3.40;3.10;;;;;;;16.07;74.74;99857.84;4951033;28;20463;-78
2022/07/05 04:24:14;;;;;;;11.27;3.10;;;;;;;16.13;74.38;99868.75;4961985;28;20941;-78
2022/07/05 04:26:39;;;;;;;4.10;3.70;;;;;;;16.18;74.18;99862.25;4965646;28;20226;-78
2022/07/05 04:29:05;;;;;;;2.97;2.77;;;;;;;16.24;73.99;99869.69;4952273;28;20512;-78
2022/07/05 04:31:35;;;;;;;5.30;3.37;;;;;;;16.32;73.92;99870.72;4950979;28;20657;-78
2022/07/05 04:34:00;;;;;;;5.43;3.63;;;;;;;16.36;73.16;99864.19;4949969;28;20662;-79
2022/07/05 04:36:30;;;;;;;4.13;3.80;;;;;;;16.36;73.09;99869.50;4953678;28;20224;-80
2022/07/05 04:38:57;;;;;;;5.10;4.60;;;;;;;16.45;72.67;99865.22;4953514;28;20460;-79
2022/07/05 04:41:24;;;;;;;3.40;3.10;;;;;;;16.54;72.20;99869.75;4950901;28;21036;-79
2022/07/05 04:43:50;;;;;;;3.90;3.60;;;;;;;16.65;71.83;99868.84;4952121;28;20570;-80
2022/07/05 04:46:15;;;;;;;3.97;3.57;;;;;;;16.73;70.96;99874.34;4942697;28;20236;-79
2022/07/05 04:48:42;;;;;;;8.03;3.27;;;;;;;16.81;70.78;99876.38;4933005;28;20216;-79
2022/07/05 04:51:10;;;;;;;3.33;2.97;;;;;;;16.93;70.11;99883.28;4963113;28;20461;-79
2022/07/05 04:53:35;;;;;;;5.87;3.53;;;;;;;17.38;68.86;99885.56;4948770;29;20453;-79
2022/07/05 04:56:01;;;;;;;3.10;2.80;;;;;;;18.91;63.80;99886.81;4949623;29;20212;-79
2022/07/05 04:58:26;;;;;;;5.07;3.50;;;;;;;20.49;58.69;99873.25;4950471;29;20197;-79
2022/07/05 05:00:51;;;;;;;8.70;3.40;;;;;;;21.95;54.26;99871.50;4966637;28;20823;-80
2022/07/05 05:03:19;;;;;;;3.70;3.40;;;;;;;23.11;51.16;99866.78;4969277;28;20745;-80
2022/07/05 05:05:44;;;;;;;2.83;2.63;;;;;;;24.02;48.84;99869.91;4969102;28;20240;-80
2022/07/05 05:08:09;;;;;;;5.27;2.53;;;;;;;24.80;46.82;99874.16;4958033;28;20492;-80
2022/07/05 05:10:35;;;;;;;5.07;3.27;;;;;;;25.47;44.84;99873.25;4952460;28;20209;-80
2022/07/05 05:13:00;;;;;;;4.27;2.50;;;;;;;25.96;43.92;99877.16;4950370;28;20252;-80
2022/07/05 05:15:25;;;;;;;3.10;2.60;;;;;;;26.26;42.88;99877.84;4949614;28;20317;-80
2022/07/05 05:17:51;;;;;;;2.70;2.20;;;;;;;26.79;41.67;99869.38;4951477;28;20222;-81
2022/07/05 05:20:18;;;;;;;3.50;3.20;;;;;;;27.01;40.95;99875.56;4966647;28;20216;-80
2022/07/05 05:22:45;;;;;;;3.53;3.10;;;;;;;27.18;40.19;99866.16;4968834;28;20462;-80
2022/07/05 05:25:12;;;;;;;4.60;2.87;;;;;;;27.19;39.65;99872.38;4969541;28;20476;-80
2022/07/05 05:27:49;;;;;;;3.40;3.10;;;;;;;27.52;38.89;99867.97;4969147;28;20472;-80
2022/07/05 05:30:16;;;;;;;2.53;2.33;;;;;;;28.10;37.87;99870.22;4967666;28;20549;-80
2022/07/05 05:32:41;;;;;;;5.10;2.20;;;;;;;28.00;37.80;99862.53;4966944;28;20226;-80
2022/07/05 05:35:07;;;;;;;2.83;2.63;;;;;;;28.16;37.47;99866.69;4968084;28;20458;-80
2022/07/05 05:38:05;;;;;;;3.30;2.67;;;;;;;28.23;37.38;99872.94;4968747;28;20588;-80
2022/07/05 05:40:32;;;;;;;5.10;2.27;;;;;;;28.93;36.03;99869.00;4912627;28;20891;-81
2022/07/05 05:42:59;;;;;;;5.53;2.47;;;;;;;29.35;35.28;99873.06;4966785;28;20498;-80
2022/07/05 05:45:25;;;;;;;3.07;2.77;;;;;;;29.72;34.44;99878.78;4966611;28;20493;-80
2022/07/05 05:47:57;;;;;;;2.53;2.30;;;;;;;29.72;34.31;99874.19;4949274;29;20501;-81
2022/07/05 05:50:25;;;;;;;4.13;2.20;;;;;;;30.18;33.89;99873.06;4962404;28;20202;-81
2022/07/05 05:52:51;;;;;;;2.33;2.13;;;;;;;30.38;33.23;99877.53;4969910;28;20508;-83
2022/07/05 05:55:19;;;;;;;5.03;2.83;;;;;;;29.99;33.84;99876.75;4966121;28;20468;-84
2022/07/05 05:57:44;;;;;;;4.87;2.30;;;;;;;30.31;33.19;99876.78;4952762;28;20492;-84
2022/07/05 06:00:11;;;;;;;4.30;2.50;;;;;;;30.76;32.12;99879.28;4958099;28;20472;-84
2022/07/05 06:02:40;;;;;;;3.45;2.30;;;;;;;31.15;31.78;99874.56;4967190;28;20849;-85
2022/07/05 06:05:05;;;;;;;3.40;2.37;;;;;;;31.66;30.88;99867.91;4962288;28;20218;-85
2022/07/05 06:07:31;;;;;;;2.13;2.03;;;;;;;31.96;30.68;99871.47;4962002;28;20300;-82
2022/07/05 06:09:56;;;;;;;2.53;2.10;;;;;;;32.30;30.12;99871.00;4959361;28;20213;-83
2022/07/05 06:12:21;;;;;;;2.83;2.40;;;;;;;32.56;29.61;99870.56;4960287;28;20217;-84
2022/07/05 06:14:47;;;;;;;3.00;2.70;;;;;;;32.67;29.27;99879.78;4960504;28;20306;-83
2022/07/05 06:17:12;;;;;;;4.67;2.87;;;;;;;32.59;28.73;99875.53;4946752;28;20235;-83
2022/07/05 06:19:38;;;;;;;3.63;2.17;;;;;;;32.55;28.99;99885.22;4958013;28;20201;-83
2022/07/05 06:22:03;;;;;;;6.60;2.87;;;;;;;32.54;29.19;99885.44;4948349;28;20237;-84
2022/07/05 06:24:29;;;;;;;2.37;2.17;;;;;;;32.57;28.93;99879.56;4977885;23;20258;-89
2022/07/05 06:26:54;;;;;;;3.77;2.40;;;;;;;32.89;28.49;99874.56;4965701;28;20205;-89
2022/07/05 06:29:20;;;;;;;3.10;2.43;;;;;;;32.84;28.58;99885.38;4967411;28;20197;-88
2022/07/05 06:31:48;;;;;;;3.00;1.90;;;;;;;33.07;28.11;99881.81;4959921;28;20220;-90
2022/07/05 06:34:14;;;;;;;2.70;1.70;;;;;;;33.53;26.82;99881.94;4954174;28;20239;-91
2022/07/05 06:36:39;;;;;;;2.57;2.37;;;;;;;34.01;25.80;99883.44;4959103;28;20457;-90
2022/07/05 06:39:07;;;;;;;2.90;1.77;;;;;;;33.80;25.29;99882.22;4964778;28;20228;-89
2022/07/05 06:41:35;;;;;;;3.10;1.90;;;;;;;33.92;24.84;99891.19;4977213;28;20731;-89
2022/07/05 06:44:09;;;;;;;2.03;1.93;;;;;;;34.13;24.38;99885.06;4976234;28;20527;-90
2022/07/05 06:46:35;;;;;;;2.07;1.50;;;;;;;34.42;23.73;99889.63;4976935;28;20486;-89
2022/07/05 06:49:03;;;;;;;3.60;1.80;;;;;;;34.71;23.53;99890.41;4978832;28;20476;-90
2022/07/05 06:51:31;;;;;;;2.07;1.83;;;;;;;34.98;23.04;99883.16;4986205;28;20228;-87
2022/07/05 06:53:57;;;;;;;1.40;1.30;;;;;;;35.15;22.64;99890.50;4975592;28;20483;-89
2022/07/05 06:56:22;;;;;;;2.20;2.00;;;;;;;35.24;22.18;99891.69;4978604;28;20461;-89
2022/07/05 06:58:48;;;;;;;1.60;1.50;;;;;;;35.21;21.76;99900.41;4975022;28;20233;-90
2022/07/05 07:01:13;;;;;;;1.60;1.50;;;;;;;34.94;22.22;99887.44;4977351;28;20284;-89
2022/07/05 07:03:41;;;;;;;1.40;1.30;;;;;;;34.98;22.18;99890.53;4978099;28;20292;-90
2022/07/05 07:06:07;;;;;;;2.20;1.60;;;;;;;35.05;21.93;99893.06;4977086;28;20205;-90
2022/07/05 07:11:18;;;;;;;3.43;2.37;;;;;;;35.14;21.53;99905.25;4982401;28;20202;-89
2022/07/05 07:13:51;;;;;;;2.30;1.60;;;;;;;35.11;21.30;99903.03;4979457;28;20817;-89
2022/07/05 07:16:16;;;;;;;1.57;1.47;;;;;;;35.35;21.02;99904.44;4974983;28;20452;-87
2022/07/05 07:18:44;;;;;;;4.23;1.50;;;;;;;35.19;20.32;99899.84;4978699;28;20840;-87
2022/07/05 07:21:17;;;;;;;1.90;1.70;;;;;;;34.79;21.13;99904.44;4977158;28;20201;-88
2022/07/05 07:23:44;;;;;;;1.60;1.50;;;;;;;35.22;20.68;99905.63;4978266;28;20468;-89
2022/07/05 07:26:13;;;;;;;3.80;1.40;;;;;;;35.50;20.61;99900.22;4977335;28;20944;-88
2022/07/05 07:28:40;;;;;;;1.63;1.30;;;;;;;35.40;20.46;99901.75;4959064;28;21013;-89
2022/07/05 07:31:07;;;;;;;3.97;1.87;;;;;;;35.79;20.10;99895.41;4978312;28;20471;-90
2022/07/05 07:33:38;;;;;;;1.70;1.60;;;;;;;35.74;19.91;99900.81;4981562;28;21021;-89
2022/07/05 07:36:04;;;;;;;3.40;1.50;;;;;;;35.67;20.12;99898.25;4980113;28;20467;-88
2022/07/05 07:38:30;;;;;;;1.70;1.57;;;;;;;35.35;20.76;99898.97;4982665;28;20547;-90
2022/07/05 07:40:56;;;;;;;2.63;1.67;;;;;;;35.39;21.17;99905.56;4980738;28;20467;-88
2022/07/05 07:43:21;;;;;;;1.90;1.60;;;;;;;35.17;21.10;99907.47;4994309;28;20197;-90
2022/07/05 07:45:48;;;;;;;1.70;1.60;;;;;;;35.16;21.39;99913.97;4991288;28;20208;-88
2022/07/05 07:48:18;;;;;;;1.60;1.50;;;;;;;35.12;21.42;99910.13;4970352;28;20736;-88
2022/07/05 07:50:44;;;;;;;3.07;1.63;;;;;;;35.54;20.72;99913.13;4965858;28;20518;-90
2022/07/05 07:53:10;;;;;;;1.70;1.37;;;;;;;35.87;20.67;99908.63;4981863;28;20475;-89
2022/07/05 07:55:35;;;;;;;3.43;2.63;;;;;;;35.85;20.65;99908.84;4973868;28;20222;-89
2022/07/05 07:58:03;;;;;;;1.70;1.50;;;;;;;35.74;21.11;99914.47;4967325;28;20217;-90
2022/07/05 08:00:37;;;;;;;1.90;1.70;;;;;;;35.90;20.72;99910.81;4976264;28;20209;-91
2022/07/05 08:03:10;;;;;;;2.10;1.70;;;;;;;36.14;20.30;99907.81;4980547;28;20500;-90
2022/07/05 08:05:35;;;;;;;2.40;1.50;;;;;;;36.14;20.37;99911.38;4981964;28;20236;-92
2022/07/05 08:08:16;;;;;;;1.67;1.57;;;;;;;35.87;20.66;99912.16;4981273;28;20436;-90
2022/07/05 08:10:59;;;;;;;;;;;;;;;;;;;;;
2022/07/05 08:13:27;;;;;;;2.87;1.80;;;;;;;35.87;20.71;99909.44;4962338;28;20468;-89
2022/07/05 08:15:55;;;;;;;2.63;1.70;;;;;;;35.33;21.09;99900.31;4961102;28;20472;-89
2022/07/05 08:23:54;;;;;;;2.20;2.00;;;;;;;33.72;23.02;99903.34;4971256;28;20542;-90
2022/07/05 08:26:21;;;;;;;3.63;1.87;;;;;;;33.99;22.65;99905.47;4977518;28;20542;-91
2022/07/05 08:29:07;;;;;;;7.43;2.77;;;;;;;33.61;23.40;99900.66;4985720;28;20993;-89
2022/07/05 08:31:39;;;;;;;2.97;1.80;;;;;;;32.63;24.53;99905.81;4983180;28;20467;-91
2022/07/05 08:34:05;;;;;;;3.13;2.20;;;;;;;31.65;25.72;99905.13;4980927;28;20508;-90
2022/07/05 08:36:47;;;;;;;;;;;;;;;;;;;;;
2022/07/05 08:39:20;;;;;;;3.37;1.70;;;;;;;30.37;27.76;99911.94;4968851;28;20210;-90
2022/07/05 08:41:51;;;;;;;2.30;1.70;;;;;;;30.02;28.21;99916.13;4979281;28;20478;-90
2022/07/05 08:44:33;;;;;;;2.20;1.70;;;;;;;29.69;28.72;99917.13;4965424;28;20460;-89
2022/07/05 08:47:34;;;;;;;4.10;1.90;;;;;;;29.58;28.63;99913.16;4965640;28;20445;-90
2022/07/05 08:50:14;;;;;;;2.20;1.93;;;;;;;29.61;28.71;99915.44;4977473;28;20539;-91
2022/07/05 08:52:40;;;;;;;1.63;1.53;;;;;;;29.23;29.45;99910.78;4964677;28;21244;-91
2022/07/05 08:55:14;;;;;;;3.23;2.00;;;;;;;28.52;30.45;99922.28;4976463;28;21061;-93
2022/07/05 08:57:50;;;;;;;1.87;1.57;;;;;;;28.53;30.76;99915.81;4962609;28;20457;-90
2022/07/05 09:00:26;;;;;;;1.60;1.50;;;;;;;28.81;29.96;99926.44;4969898;28;20463;-89
2022/07/05 09:02:56;;;;;;;1.77;1.60;;;;;;;28.83;29.04;99927.03;4977698;28;20672;-90
2022/07/05 09:05:25;;;;;;;1.70;1.60;;;;;;;28.61;29.61;99918.31;4979658;28;20213;-91
2022/07/05 09:08:17;;;;;;;5.03;1.97;;;;;;;28.89;29.75;99914.56;4978443;28;20464;-90
2022/07/05 09:10:44;;;;;;;2.67;1.90;;;;;;;29.09;29.99;99917.28;4972350;28;20495;-91
2022/07/05 09:13:17;;;;;;;2.10;1.70;;;;;;;29.13;29.92;99917.69;4980918;28;20486;-89
2022/07/05 09:15:50;;;;;;;3.57;1.80;;;;;;;29.16;29.22;99912.66;4970743;28;20487;-90
2022/07/05 09:18:41;;;;;;;1.60;1.50;;;;;;;29.24;29.68;99915.13;4966385;28;20475;-91
2022/07/05 09:21:22;;;;;;;2.80;1.67;;;;;;;29.05;29.58;99913.31;4971979;28;20221;-90
2022/07/05 09:23:57;;;;;;;3.17;1.60;;;;;;;28.74;30.21;99925.59;4978290;28;20471;-89
2022/07/05 09:26:33;;;;;;;2.10;1.43;;;;;;;28.62;30.25;99922.66;4978710;28;21182;-89
2022/07/05 09:29:04;;;;;;;3.83;1.97;;;;;;;28.57;30.36;99924.34;4978696;28;20973;-90
2022/07/05 09:31:41;;;;;;;2.13;1.40;;;;;;;28.57;30.63;99924.34;4977970;28;20471;-91
2022/07/05 09:34:17;;;;;;;2.10;1.30;;;;;;;28.98;30.71;99926.00;4979560;28;20486;-90
2022/07/05 09:37:05;;;;;;;1.50;1.40;;;;;;;29.17;29.90;99932.44;4979611;28;20474;-91
2022/07/05 09:39:51;;;;;;;1.90;1.80;;;;;;;29.13;30.18;99934.72;4960897;28;20467;-89
2022/07/05 09:42:23;;;;;;;2.80;1.63;;;;;;;28.80;30.55;99930.16;4959536;28;21491;-91
2022/07/05 09:45:13;;;;;;;3.73;1.60;;;;;;;28.95;30.34;99931.81;4960752;28;20441;-90
2022/07/05 09:47:41;;;;;;;2.53;1.60;;;;;;;29.42;29.42;99929.88;4959193;28;20480;-89
2022/07/05 09:50:09;;;;;;;1.40;1.30;;;;;;;29.65;29.09;99921.28;4971841;28;20479;-92
2022/07/05 09:52:56;;;;;;;3.23;1.70;;;;;;;29.70;29.11;99919.59;4978391;28;20487;-89
2022/07/05 09:55:32;;;;;;;3.47;1.47;;;;;;;29.40;29.50;99921.13;4974858;28;20880;-89
2022/07/05 09:58:01;;;;;;;1.90;1.80;;;;;;;29.50;29.38;99921.53;4966452;28;20485;-89
2022/07/05 10:00:26;;;;;;;2.00;1.80;;;;;;;29.10;29.55;99911.63;4972532;28;20463;-90
2022/07/05 10:03:02;;;;;;;2.70;1.93;;;;;;;29.13;29.76;99907.69;4974821;28;20456;-91
2022/07/05 10:05:32;;;;;;;1.60;1.50;;;;;;;29.54;29.38;99909.22;4978325;28;20749;-90
2022/07/05 10:08:04;;;;;;;2.53;1.50;;;;;;;29.83;29.02;99909.75;4949386;28;20820;-90
2022/07/05 10:10:32;;;;;;;1.77;1.50;;;;;;;29.98;28.34;99911.13;4955429;28;21001;-92
2022/07/05 10:13:01;;;;;;;5.30;2.33;;;;;;;30.22;27.94;99911.41;4978748;28;20942;-90
2022/07/05 10:15:41;;;;;;;2.63;2.20;;;;;;;30.41;27.76;99909.66;4972257;28;21224;-94
2022/07/05 10:18:31;;;;;;;2.73;1.60;;;;;;;30.58;27.73;99916.16;4962858;28;20448;-91
2022/07/05 10:21:10;;;;;;;3.37;1.50;;;;;;;30.71;27.72;99906.28;4963439;28;20464;-92
2022/07/05 10:23:44;;;;;;;1.60;1.50;;;;;;;30.72;28.35;99910.63;4986344;28;20452;-91
2022/07/05 10:26:15;;;;;;;2.20;1.70;;;;;;;30.90;27.75;99905.28;4987655;28;20504;-91
2022/07/05 10:28:54;;;;;;;1.40;1.30;;;;;;;31.00;27.27;99902.91;4968423;28;20487;-92
2022/07/05 10:31:39;;;;;;;2.30;1.30;;;;;;;31.11;26.60;99911.31;4991385;28;20514;-94
2022/07/05 10:34:07;;;;;;;1.77;1.50;;;;;;;31.21;26.47;99900.78;4979170;28;20472;-91
2022/07/05 10:36:35;;;;;;;2.20;1.40;;;;;;;31.01;26.49;99904.53;4965235;28;20525;-90
2022/07/05 10:39:05;;;;;;;2.33;1.70;;;;;;;30.94;27.13;99905.66;4976274;28;20535;-92
2022/07/05 10:41:42;;;;;;;1.43;1.33;;;;;;;30.73;27.21;99907.72;4978459;28;21012;-95
2022/07/05 10:44:11;;;;;;;2.63;1.43;;;;;;;30.72;27.46;99897.91;4968524;28;20441;-93
2022/07/05 10:46:40;;;;;;;2.60;1.47;;;;;;;30.89;27.66;99909.03;4948147;28;20463;-93
2022/07/05 10:49:18;;;;;;;1.67;1.57;;;;;;;30.98;27.32;99904.19;4956568;28;20312;-91
2022/07/05 10:51:46;;;;;;;1.80;1.70;;;;;;;31.09;26.88;99904.25;4966183;28;20483;-94
2022/07/05 10:54:19;;;;;;;1.97;1.77;;;;;;;31.14;27.07;99908.19;4976425;28;20480;-90
2022/07/05 10:57:26;;;;;;;1.20;1.10;;;;;;;31.01;25.91;99907.25;4977419;28;20460;-93
2022/07/05 11:00:09;;;;;;;2.47;1.33;;;;;;;30.90;26.29;99904.47;4976765;28;20444;-89
2022/07/05 11:02:38;;;;;;;2.53;1.53;;;;;;;30.76;26.74;99904.56;4961656;28;20518;-91
2022/07/05 11:05:06;;;;;;;3.20;1.60;;;;;;;30.81;27.30;99902.03;4963613;28;20601;-91
2022/07/05 11:08:02;;;;;;;3.60;1.67;;;;;;;30.92;26.77;99897.75;4985591;28;20487;-93
2022/07/05 11:10:31;;;;;;;1.60;1.50;;;;;;;30.86;26.34;99899.47;4965600;28;20483;-91
2022/07/05 11:13:23;;;;;;;1.67;1.30;;;;;;;30.85;25.60;99891.56;4965184;28;20471;-91
2022/07/05 11:16:28;;;;;;;1.87;1.30;;;;;;;30.72;26.01;99897.91;4968872;28;20484;-91
2022/07/05 11:19:09;;;;;;;1.77;1.60;;;;;;;30.77;25.63;99892.66;4965107;28;20473;-91
2022/07/05 11:21:42;;;;;;;3.83;1.30;;;;;;;30.57;25.29;99891.97;4979615;28;20456;-92
2022/07/05 11:24:26;;;;;;;2.73;1.50;;;;;;;30.07;26.60;99887.31;4973616;28;21400;-92
2022/07/05 11:26:53;;;;;;;3.07;1.13;;;;;;;29.98;26.84;99888.66;4956191;28;20453;-91
2022/07/05 11:29:46;;;;;;;1.50;1.40;;;;;;;30.05;25.91;99885.88;4963291;28;20476;-90
2022/07/05 11:32:17;;;;;;;2.30;1.50;;;;;;;29.76;26.12;99880.84;4944942;28;21008;-92
2022/07/05 11:34:48;;;;;;;2.13;1.57;;;;;;;29.49;26.58;99876.56;4961197;28;20480;-90
2022/07/05 11:37:14;;;;;;;1.63;1.40;;;;;;;29.38;26.97;99878.06;4960203;28;20946;-91
2022/07/05 11:39:51;;;;;;;1.77;1.33;;;;;;;29.60;27.09;99870.47;4963635;28;20523;-94
2022/07/05 11:42:24;;;;;;;4.03;1.50;;;;;;;29.82;26.61;99871.03;4967256;28;20618;-90
2022/07/05 11:44:51;;;;;;;1.70;1.10;;;;;;;29.50;26.95;99864.69;4964799;28;20857;-91
2022/07/05 11:47:20;;;;;;;1.67;1.33;;;;;;;29.34;27.38;99866.00;4962850;28;20461;-93
2022/07/05 11:49:56;;;;;;;2.17;1.10;;;;;;;29.40;27.87;99864.31;4964106;28;20202;-90
2022/07/05 11:52:29;;;;;;;2.20;1.13;;;;;;;29.43;27.36;99864.72;4959970;28;20457;-91
2022/07/05 11:54:56;;;;;;;3.23;1.63;;;;;;;29.38;27.57;99864.53;4963594;28;21449;-92
2022/07/05 11:57:23;;;;;;;1.93;1.20;;;;;;;29.45;27.43;99862.63;4932105;28;20469;-91
2022/07/05 11:59:49;;;;;;;4.67;1.63;;;;;;;29.48;27.27;99861.38;4945165;28;20940;-91